sensor_id;sensor_type;location;lat;lon;timestamp;temperature;humidity
30889;DHT22;51092;50.874;7.024;2023-07-16T00:00:25;20.80;70.80
30889;DHT22;51092;50.874;7.024;2023-07-16T00:01:27;20.80;70.70
30889;DHT22;51092;50.874;7.024;2023-07-16T00:02:29;20.80;71.20
30889;DHT22;51092;50.874;7.024;2023-07-16T00:03:31;20.80;71.40
30889;DHT22;51092;50.874;7.024;2023-07-16T00:04:33;20.80;71.50
30889;DHT22;51092;50.874;7.024;2023-07-16T00:05:36;20.70;72.40
30889;DHT22;51092;50.874;7.024;2023-07-16T00:06:38;20.80;71.30
30889;DHT22;51092;50.874;7.024;2023-07-16T00:07:42;20.70;71.80
30889;DHT22;51092;50.874;7.024;2023-07-16T00:08:43;20.60;72.80
30889;DHT22;51092;50.874;7.024;2023-07-16T00:09:45;20.60;73.10
30889;DHT22;51092;50.874;7.024;2023-07-16T00:10:46;20.60;72.40
30889;DHT22;51092;50.874;7.024;2023-07-16T00:11:48;20.60;72.20
30889;DHT22;51092;50.874;7.024;2023-07-16T00:12:49;20.50;73.50
30889;DHT22;51092;50.874;7.024;2023-07-16T00:13:51;20.60;72.20
30889;DHT22;51092;50.874;7.024;2023-07-16T00:14:52;20.60;72.00
30889;DHT22;51092;50.874;7.024;2023-07-16T00:15:57;20.60;72.30
30889;DHT22;51092;50.874;7.024;2023-07-16T00:16:58;20.60;72.20
30889;DHT22;51092;50.874;7.024;2023-07-16T00:18:01;20.50;73.30
30889;DHT22;51092;50.874;7.024;2023-07-16T00:19:03;20.50;73.70
30889;DHT22;51092;50.874;7.024;2023-07-16T00:20:07;20.50;73.40
30889;DHT22;51092;50.874;7.024;2023-07-16T00:21:09;20.40;73.90
30889;DHT22;51092;50.874;7.024;2023-07-16T00:22:11;20.40;74.30
30889;DHT22;51092;50.874;7.024;2023-07-16T00:23:14;20.40;74.60
30889;DHT22;51092;50.874;7.024;2023-07-16T00:24:15;20.40;74.00
30889;DHT22;51092;50.874;7.024;2023-07-16T00:25:17;20.40;75.10
30889;DHT22;51092;50.874;7.024;2023-07-16T00:26:18;20.30;74.70
30889;DHT22;51092;50.874;7.024;2023-07-16T00:27:20;20.30;76.40
30889;DHT22;51092;50.874;7.024;2023-07-16T00:28:21;20.30;75.20
30889;DHT22;51092;50.874;7.024;2023-07-16T00:29:24;20.30;75.10
30889;DHT22;51092;50.874;7.024;2023-07-16T00:30:25;20.30;74.60
30889;DHT22;51092;50.874;7.024;2023-07-16T00:31:30;20.30;74.50
30889;DHT22;51092;50.874;7.024;2023-07-16T00:32:31;20.30;74.40
30889;DHT22;51092;50.874;7.024;2023-07-16T00:33:34;20.30;75.30
30889;DHT22;51092;50.874;7.024;2023-07-16T00:34:35;20.30;74.50
30889;DHT22;51092;50.874;7.024;2023-07-16T00:35:38;20.30;75.30
30889;DHT22;51092;50.874;7.024;2023-07-16T00:36:39;20.20;75.90
30889;DHT22;51092;50.874;7.024;2023-07-16T00:37:42;20.10;76.80
30889;DHT22;51092;50.874;7.024;2023-07-16T00:38:44;20.10;76.40
30889;DHT22;51092;50.874;7.024;2023-07-16T00:39:47;20.10;78.80
30889;DHT22;51092;50.874;7.024;2023-07-16T00:40:49;20.00;77.90
30889;DHT22;51092;50.874;7.024;2023-07-16T00:41:51;20.00;78.80
30889;DHT22;51092;50.874;7.024;2023-07-16T00:42:53;20.00;78.60
30889;DHT22;51092;50.874;7.024;2023-07-16T00:43:54;20.00;78.80
30889;DHT22;51092;50.874;7.024;2023-07-16T00:44:55;20.00;79.00
30889;DHT22;51092;50.874;7.024;2023-07-16T00:45:57;20.00;79.50
30889;DHT22;51092;50.874;7.024;2023-07-16T00:47:00;19.90;80.20
30889;DHT22;51092;50.874;7.024;2023-07-16T00:48:04;19.90;83.30
30889;DHT22;51092;50.874;7.024;2023-07-16T00:49:06;19.90;82.10
30889;DHT22;51092;50.874;7.024;2023-07-16T00:50:10;20.00;82.90
30889;DHT22;51092;50.874;7.024;2023-07-16T00:51:12;20.00;80.90
30889;DHT22;51092;50.874;7.024;2023-07-16T00:52:18;20.00;82.00
30889;DHT22;51092;50.874;7.024;2023-07-16T00:53:20;20.00;80.70
30889;DHT22;51092;50.874;7.024;2023-07-16T00:54:22;19.90;82.80
30889;DHT22;51092;50.874;7.024;2023-07-16T00:55:24;20.00;80.00
30889;DHT22;51092;50.874;7.024;2023-07-16T00:56:27;20.00;81.50
30889;DHT22;51092;50.874;7.024;2023-07-16T00:57:29;20.00;81.10
30889;DHT22;51092;50.874;7.024;2023-07-16T00:58:32;20.00;80.90
30889;DHT22;51092;50.874;7.024;2023-07-16T00:59:33;20.00;80.20
30889;DHT22;51092;50.874;7.024;2023-07-16T01:00:37;20.00;81.70
30889;DHT22;51092;50.874;7.024;2023-07-16T01:01:39;19.90;83.10
30889;DHT22;51092;50.874;7.024;2023-07-16T01:02:43;19.90;83.10
30889;DHT22;51092;50.874;7.024;2023-07-16T01:03:45;19.90;82.40
30889;DHT22;51092;50.874;7.024;2023-07-16T01:04:47;19.80;84.70
30889;DHT22;51092;50.874;7.024;2023-07-16T01:05:54;19.80;83.10
30889;DHT22;51092;50.874;7.024;2023-07-16T01:07:01;19.80;85.10
30889;DHT22;51092;50.874;7.024;2023-07-16T01:08:09;19.80;83.70
30889;DHT22;51092;50.874;7.024;2023-07-16T01:09:15;19.80;83.40
30889;DHT22;51092;50.874;7.024;2023-07-16T01:10:17;19.80;82.90
30889;DHT22;51092;50.874;7.024;2023-07-16T01:11:19;19.80;84.40
30889;DHT22;51092;50.874;7.024;2023-07-16T01:12:21;19.80;84.90
30889;DHT22;51092;50.874;7.024;2023-07-16T01:13:24;19.80;85.00
30889;DHT22;51092;50.874;7.024;2023-07-16T01:14:27;19.80;88.00
30889;DHT22;51092;50.874;7.024;2023-07-16T01:15:31;19.70;90.30
30889;DHT22;51092;50.874;7.024;2023-07-16T01:16:33;19.70;90.70
30889;DHT22;51092;50.874;7.024;2023-07-16T01:17:35;19.70;93.60
30889;DHT22;51092;50.874;7.024;2023-07-16T01:18:38;19.70;97.50
30889;DHT22;51092;50.874;7.024;2023-07-16T01:19:40;19.70;96.70
30889;DHT22;51092;50.874;7.024;2023-07-16T01:20:42;19.60;98.90
30889;DHT22;51092;50.874;7.024;2023-07-16T01:21:50;19.60;99.40
30889;DHT22;51092;50.874;7.024;2023-07-16T01:23:09;19.50;99.90
30889;DHT22;51092;50.874;7.024;2023-07-16T01:24:36;19.50;99.90
30889;DHT22;51092;50.874;7.024;2023-07-16T01:25:55;19.40;99.90
30889;DHT22;51092;50.874;7.024;2023-07-16T01:27:14;19.40;99.90
30889;DHT22;51092;50.874;7.024;2023-07-16T01:29:45;19.30;99.90
30889;DHT22;51092;50.874;7.024;2023-07-16T01:30:50;19.30;99.90
30889;DHT22;51092;50.874;7.024;2023-07-16T01:31:55;19.30;99.90
30889;DHT22;51092;50.874;7.024;2023-07-16T01:32:57;19.30;99.90
30889;DHT22;51092;50.874;7.024;2023-07-16T01:34:00;19.30;99.90
30889;DHT22;51092;50.874;7.024;2023-07-16T01:35:06;19.30;99.90
30889;DHT22;51092;50.874;7.024;2023-07-16T01:36:08;19.20;99.90
30889;DHT22;51092;50.874;7.024;2023-07-16T01:37:09;19.20;99.90
30889;DHT22;51092;50.874;7.024;2023-07-16T01:38:12;19.20;99.90
30889;DHT22;51092;50.874;7.024;2023-07-16T01:39:14;19.20;99.90
30889;DHT22;51092;50.874;7.024;2023-07-16T01:40:15;19.10;99.90
30889;DHT22;51092;50.874;7.024;2023-07-16T01:41:18;19.10;99.90
30889;DHT22;51092;50.874;7.024;2023-07-16T01:42:20;19.10;99.90
30889;DHT22;51092;50.874;7.024;2023-07-16T01:43:22;19.10;99.90
30889;DHT22;51092;50.874;7.024;2023-07-16T01:44:24;19.00;99.90
30889;DHT22;51092;50.874;7.024;2023-07-16T01:45:28;19.00;99.90
30889;DHT22;51092;50.874;7.024;2023-07-16T01:46:29;19.00;99.90
30889;DHT22;51092;50.874;7.024;2023-07-16T01:47:39;19.00;99.90
30889;DHT22;51092;50.874;7.024;2023-07-16T01:48:41;19.00;99.90
30889;DHT22;51092;50.874;7.024;2023-07-16T01:49:43;19.00;99.90
30889;DHT22;51092;50.874;7.024;2023-07-16T01:50:45;18.90;99.90
30889;DHT22;51092;50.874;7.024;2023-07-16T01:51:47;18.90;99.90
30889;DHT22;51092;50.874;7.024;2023-07-16T01:52:49;18.90;99.90
30889;DHT22;51092;50.874;7.024;2023-07-16T01:53:51;18.90;99.90
30889;DHT22;51092;50.874;7.024;2023-07-16T01:54:53;18.90;99.90
30889;DHT22;51092;50.874;7.024;2023-07-16T01:55:55;18.90;99.90
30889;DHT22;51092;50.874;7.024;2023-07-16T01:56:57;18.80;99.90
30889;DHT22;51092;50.874;7.024;2023-07-16T01:57:59;18.80;99.90
30889;DHT22;51092;50.874;7.024;2023-07-16T01:59:01;18.80;99.90
30889;DHT22;51092;50.874;7.024;2023-07-16T02:00:04;18.80;99.90
30889;DHT22;51092;50.874;7.024;2023-07-16T02:01:08;18.80;99.90
30889;DHT22;51092;50.874;7.024;2023-07-16T02:02:10;18.80;99.90
30889;DHT22;51092;50.874;7.024;2023-07-16T02:03:12;18.80;99.90
30889;DHT22;51092;50.874;7.024;2023-07-16T02:04:15;18.80;99.90
30889;DHT22;51092;50.874;7.024;2023-07-16T02:05:16;18.80;99.90
30889;DHT22;51092;50.874;7.024;2023-07-16T02:06:19;18.80;99.90
30889;DHT22;51092;50.874;7.024;2023-07-16T02:07:20;18.80;99.90
30889;DHT22;51092;50.874;7.024;2023-07-16T02:08:24;18.70;99.90
30889;DHT22;51092;50.874;7.024;2023-07-16T02:09:26;18.70;99.90
30889;DHT22;51092;50.874;7.024;2023-07-16T02:10:28;18.70;99.90
30889;DHT22;51092;50.874;7.024;2023-07-16T02:11:30;18.70;99.90
30889;DHT22;51092;50.874;7.024;2023-07-16T02:12:32;18.60;99.90
30889;DHT22;51092;50.874;7.024;2023-07-16T02:13:34;18.60;99.90
30889;DHT22;51092;50.874;7.024;2023-07-16T02:14:36;18.60;99.90
30889;DHT22;51092;50.874;7.024;2023-07-16T02:15:38;18.60;99.90
30889;DHT22;51092;50.874;7.024;2023-07-16T02:16:42;18.60;99.90
30889;DHT22;51092;50.874;7.024;2023-07-16T02:17:44;18.60;99.90
30889;DHT22;51092;50.874;7.024;2023-07-16T02:18:46;18.60;99.90
30889;DHT22;51092;50.874;7.024;2023-07-16T02:19:48;18.60;99.90
30889;DHT22;51092;50.874;7.024;2023-07-16T02:20:50;18.60;99.90
30889;DHT22;51092;50.874;7.024;2023-07-16T02:21:52;18.60;99.90
30889;DHT22;51092;50.874;7.024;2023-07-16T02:22:55;18.60;99.90
30889;DHT22;51092;50.874;7.024;2023-07-16T02:23:57;18.60;99.90
30889;DHT22;51092;50.874;7.024;2023-07-16T02:24:59;18.50;99.90
30889;DHT22;51092;50.874;7.024;2023-07-16T02:26:01;18.50;99.90
30889;DHT22;51092;50.874;7.024;2023-07-16T02:27:03;18.50;99.90
30889;DHT22;51092;50.874;7.024;2023-07-16T02:28:04;18.50;99.90
30889;DHT22;51092;50.874;7.024;2023-07-16T02:29:07;18.50;99.90
30889;DHT22;51092;50.874;7.024;2023-07-16T02:30:10;18.50;99.90
30889;DHT22;51092;50.874;7.024;2023-07-16T02:31:13;18.50;99.90
30889;DHT22;51092;50.874;7.024;2023-07-16T02:32:15;18.40;99.90
30889;DHT22;51092;50.874;7.024;2023-07-16T02:33:18;18.50;99.90
30889;DHT22;51092;50.874;7.024;2023-07-16T02:34:19;18.40;99.90
30889;DHT22;51092;50.874;7.024;2023-07-16T02:35:22;18.40;99.90
30889;DHT22;51092;50.874;7.024;2023-07-16T02:36:24;18.40;99.90
30889;DHT22;51092;50.874;7.024;2023-07-16T02:37:26;18.40;99.90
30889;DHT22;51092;50.874;7.024;2023-07-16T02:38:27;18.40;99.90
30889;DHT22;51092;50.874;7.024;2023-07-16T02:39:29;18.30;99.90
30889;DHT22;51092;50.874;7.024;2023-07-16T02:40:29;18.30;99.90
30889;DHT22;51092;50.874;7.024;2023-07-16T02:41:32;18.30;99.90
30889;DHT22;51092;50.874;7.024;2023-07-16T02:42:33;18.30;99.90
30889;DHT22;51092;50.874;7.024;2023-07-16T02:43:36;18.20;99.90
30889;DHT22;51092;50.874;7.024;2023-07-16T02:44:38;18.30;99.90
30889;DHT22;51092;50.874;7.024;2023-07-16T02:45:44;18.30;99.90
30889;DHT22;51092;50.874;7.024;2023-07-16T02:46:46;18.20;99.90
30889;DHT22;51092;50.874;7.024;2023-07-16T02:47:49;18.30;99.90
30889;DHT22;51092;50.874;7.024;2023-07-16T02:48:51;18.20;99.90
30889;DHT22;51092;50.874;7.024;2023-07-16T02:49:53;18.20;99.90
30889;DHT22;51092;50.874;7.024;2023-07-16T02:50:55;18.20;99.90
30889;DHT22;51092;50.874;7.024;2023-07-16T02:51:57;18.20;99.90
30889;DHT22;51092;50.874;7.024;2023-07-16T02:52:59;18.20;99.90
30889;DHT22;51092;50.874;7.024;2023-07-16T02:54:01;18.20;99.90
30889;DHT22;51092;50.874;7.024;2023-07-16T02:55:04;18.20;99.90
30889;DHT22;51092;50.874;7.024;2023-07-16T02:56:06;18.20;99.90
30889;DHT22;51092;50.874;7.024;2023-07-16T02:57:08;18.20;99.90
30889;DHT22;51092;50.874;7.024;2023-07-16T02:58:10;18.20;99.90
30889;DHT22;51092;50.874;7.024;2023-07-16T02:59:12;18.10;99.90
30889;DHT22;51092;50.874;7.024;2023-07-16T03:00:14;18.10;99.90
30889;DHT22;51092;50.874;7.024;2023-07-16T03:01:15;18.10;99.90
30889;DHT22;51092;50.874;7.024;2023-07-16T03:02:17;18.10;99.90
30889;DHT22;51092;50.874;7.024;2023-07-16T03:03:19;18.10;99.90
30889;DHT22;51092;50.874;7.024;2023-07-16T03:04:22;18.10;99.90
30889;DHT22;51092;50.874;7.024;2023-07-16T03:05:23;18.10;99.90
30889;DHT22;51092;50.874;7.024;2023-07-16T03:06:26;18.10;99.90
30889;DHT22;51092;50.874;7.024;2023-07-16T03:07:28;18.10;99.90
30889;DHT22;51092;50.874;7.024;2023-07-16T03:08:30;18.10;99.90
30889;DHT22;51092;50.874;7.024;2023-07-16T03:09:32;18.10;99.90
30889;DHT22;51092;50.874;7.024;2023-07-16T03:10:35;18.10;99.90
30889;DHT22;51092;50.874;7.024;2023-07-16T03:11:36;18.00;99.90
30889;DHT22;51092;50.874;7.024;2023-07-16T03:12:39;18.00;99.90
30889;DHT22;51092;50.874;7.024;2023-07-16T03:13:40;18.10;99.90
30889;DHT22;51092;50.874;7.024;2023-07-16T03:14:43;18.10;99.90
30889;DHT22;51092;50.874;7.024;2023-07-16T03:15:45;18.00;99.90
30889;DHT22;51092;50.874;7.024;2023-07-16T03:16:47;18.10;99.90
30889;DHT22;51092;50.874;7.024;2023-07-16T03:17:48;18.10;99.90
30889;DHT22;51092;50.874;7.024;2023-07-16T03:18:53;18.10;99.90
30889;DHT22;51092;50.874;7.024;2023-07-16T03:19:54;18.10;99.90
30889;DHT22;51092;50.874;7.024;2023-07-16T03:20:56;18.10;99.90
30889;DHT22;51092;50.874;7.024;2023-07-16T03:21:57;18.00;99.90
30889;DHT22;51092;50.874;7.024;2023-07-16T03:23:00;18.00;99.90
30889;DHT22;51092;50.874;7.024;2023-07-16T03:24:01;18.00;99.90
30889;DHT22;51092;50.874;7.024;2023-07-16T03:25:05;18.00;99.90
30889;DHT22;51092;50.874;7.024;2023-07-16T03:26:06;18.00;99.90
30889;DHT22;51092;50.874;7.024;2023-07-16T03:27:08;18.00;99.90
30889;DHT22;51092;50.874;7.024;2023-07-16T03:28:09;18.00;99.90
30889;DHT22;51092;50.874;7.024;2023-07-16T03:29:10;18.00;99.90
30889;DHT22;51092;50.874;7.024;2023-07-16T03:30:12;18.00;99.90
30889;DHT22;51092;50.874;7.024;2023-07-16T03:31:14;18.00;99.90
30889;DHT22;51092;50.874;7.024;2023-07-16T03:32:16;18.10;99.90
30889;DHT22;51092;50.874;7.024;2023-07-16T03:33:18;18.10;99.90
30889;DHT22;51092;50.874;7.024;2023-07-16T03:34:22;18.10;99.90
30889;DHT22;51092;50.874;7.024;2023-07-16T03:35:25;18.10;99.90
30889;DHT22;51092;50.874;7.024;2023-07-16T03:36:27;18.10;99.90
30889;DHT22;51092;50.874;7.024;2023-07-16T03:37:30;18.10;99.90
30889;DHT22;51092;50.874;7.024;2023-07-16T03:38:32;18.00;99.90
30889;DHT22;51092;50.874;7.024;2023-07-16T03:39:34;18.10;99.90
30889;DHT22;51092;50.874;7.024;2023-07-16T03:40:36;18.10;99.90
30889;DHT22;51092;50.874;7.024;2023-07-16T03:41:37;18.10;99.90
30889;DHT22;51092;50.874;7.024;2023-07-16T03:42:39;18.00;99.90
30889;DHT22;51092;50.874;7.024;2023-07-16T03:43:40;18.10;99.90
30889;DHT22;51092;50.874;7.024;2023-07-16T03:44:42;18.10;99.90
30889;DHT22;51092;50.874;7.024;2023-07-16T03:45:43;18.10;99.90
30889;DHT22;51092;50.874;7.024;2023-07-16T03:46:46;18.10;99.90
30889;DHT22;51092;50.874;7.024;2023-07-16T03:47:47;18.00;99.90
30889;DHT22;51092;50.874;7.024;2023-07-16T03:48:52;18.10;99.90
30889;DHT22;51092;50.874;7.024;2023-07-16T03:49:55;18.10;99.90
30889;DHT22;51092;50.874;7.024;2023-07-16T03:50:58;18.10;99.90
30889;DHT22;51092;50.874;7.024;2023-07-16T03:51:59;18.10;99.90
30889;DHT22;51092;50.874;7.024;2023-07-16T03:53:01;18.10;99.90
30889;DHT22;51092;50.874;7.024;2023-07-16T03:54:03;18.10;99.90
30889;DHT22;51092;50.874;7.024;2023-07-16T03:55:06;18.00;99.90
30889;DHT22;51092;50.874;7.024;2023-07-16T03:56:08;18.00;99.90
30889;DHT22;51092;50.874;7.024;2023-07-16T03:57:10;18.00;99.90
30889;DHT22;51092;50.874;7.024;2023-07-16T03:58:12;18.00;99.90
30889;DHT22;51092;50.874;7.024;2023-07-16T03:59:14;18.00;99.90
30889;DHT22;51092;50.874;7.024;2023-07-16T04:00:16;18.00;99.90
30889;DHT22;51092;50.874;7.024;2023-07-16T04:01:19;18.00;99.90
30889;DHT22;51092;50.874;7.024;2023-07-16T04:02:20;18.00;99.90
30889;DHT22;51092;50.874;7.024;2023-07-16T04:03:23;18.10;99.90
30889;DHT22;51092;50.874;7.024;2023-07-16T04:04:25;18.10;99.70
30889;DHT22;51092;50.874;7.024;2023-07-16T04:05:29;18.10;99.90
30889;DHT22;51092;50.874;7.024;2023-07-16T04:06:30;18.10;99.90
30889;DHT22;51092;50.874;7.024;2023-07-16T04:07:33;18.00;99.90
30889;DHT22;51092;50.874;7.024;2023-07-16T04:08:34;18.00;99.90
30889;DHT22;51092;50.874;7.024;2023-07-16T04:09:37;18.10;98.40
30889;DHT22;51092;50.874;7.024;2023-07-16T04:10:39;18.00;99.90
30889;DHT22;51092;50.874;7.024;2023-07-16T04:11:41;18.00;99.90
30889;DHT22;51092;50.874;7.024;2023-07-16T04:12:43;18.00;99.90
30889;DHT22;51092;50.874;7.024;2023-07-16T04:13:46;18.00;99.90
30889;DHT22;51092;50.874;7.024;2023-07-16T04:14:47;18.00;99.70
30889;DHT22;51092;50.874;7.024;2023-07-16T04:15:50;18.00;99.90
30889;DHT22;51092;50.874;7.024;2023-07-16T04:16:54;18.00;99.90
30889;DHT22;51092;50.874;7.024;2023-07-16T04:17:56;18.00;99.90
30889;DHT22;51092;50.874;7.024;2023-07-16T04:18:58;18.00;99.90
30889;DHT22;51092;50.874;7.024;2023-07-16T04:20:00;18.00;99.90
30889;DHT22;51092;50.874;7.024;2023-07-16T04:21:03;18.00;99.90
30889;DHT22;51092;50.874;7.024;2023-07-16T04:22:06;18.00;99.90
30889;DHT22;51092;50.874;7.024;2023-07-16T04:23:07;18.00;99.90
30889;DHT22;51092;50.874;7.024;2023-07-16T04:24:09;18.00;99.90
30889;DHT22;51092;50.874;7.024;2023-07-16T04:25:10;18.10;99.90
30889;DHT22;51092;50.874;7.024;2023-07-16T04:26:12;18.00;99.90
30889;DHT22;51092;50.874;7.024;2023-07-16T04:27:43;18.00;99.90
30889;DHT22;51092;50.874;7.024;2023-07-16T04:28:45;18.00;99.90
30889;DHT22;51092;50.874;7.024;2023-07-16T04:29:47;18.00;99.80
30889;DHT22;51092;50.874;7.024;2023-07-16T04:30:49;18.10;98.60
30889;DHT22;51092;50.874;7.024;2023-07-16T04:31:51;18.10;99.30
30889;DHT22;51092;50.874;7.024;2023-07-16T04:32:54;18.10;98.00
30889;DHT22;51092;50.874;7.024;2023-07-16T04:33:55;18.10;97.00
30889;DHT22;51092;50.874;7.024;2023-07-16T04:34:58;18.10;96.70
30889;DHT22;51092;50.874;7.024;2023-07-16T04:35:59;18.10;96.80
30889;DHT22;51092;50.874;7.024;2023-07-16T04:37:02;18.10;96.10
30889;DHT22;51092;50.874;7.024;2023-07-16T04:38:04;18.10;96.80
30889;DHT22;51092;50.874;7.024;2023-07-16T04:39:06;18.10;96.90
30889;DHT22;51092;50.874;7.024;2023-07-16T04:40:08;18.10;97.40
30889;DHT22;51092;50.874;7.024;2023-07-16T04:41:11;18.10;98.40
30889;DHT22;51092;50.874;7.024;2023-07-16T04:42:13;18.10;98.40
30889;DHT22;51092;50.874;7.024;2023-07-16T04:43:19;18.10;96.60
30889;DHT22;51092;50.874;7.024;2023-07-16T04:44:20;18.10;96.00
30889;DHT22;51092;50.874;7.024;2023-07-16T04:45:23;18.10;96.40
30889;DHT22;51092;50.874;7.024;2023-07-16T04:46:25;18.10;94.90
30889;DHT22;51092;50.874;7.024;2023-07-16T04:47:27;18.10;94.60
30889;DHT22;51092;50.874;7.024;2023-07-16T04:48:29;18.10;96.60
30889;DHT22;51092;50.874;7.024;2023-07-16T04:49:33;18.10;96.10
30889;DHT22;51092;50.874;7.024;2023-07-16T04:50:34;18.10;95.90
30889;DHT22;51092;50.874;7.024;2023-07-16T04:51:37;18.10;95.90
30889;DHT22;51092;50.874;7.024;2023-07-16T04:52:38;18.10;96.00
30889;DHT22;51092;50.874;7.024;2023-07-16T04:53:40;18.10;95.50
30889;DHT22;51092;50.874;7.024;2023-07-16T04:54:43;18.10;96.70
30889;DHT22;51092;50.874;7.024;2023-07-16T04:55:44;18.10;96.40
30889;DHT22;51092;50.874;7.024;2023-07-16T04:56:47;18.10;96.70
30889;DHT22;51092;50.874;7.024;2023-07-16T04:57:48;18.20;96.80
30889;DHT22;51092;50.874;7.024;2023-07-16T04:58:56;18.10;95.30
30889;DHT22;51092;50.874;7.024;2023-07-16T04:59:57;18.10;95.30
30889;DHT22;51092;50.874;7.024;2023-07-16T05:01:00;18.20;94.30
30889;DHT22;51092;50.874;7.024;2023-07-16T05:02:02;18.20;92.90
30889;DHT22;51092;50.874;7.024;2023-07-16T05:03:04;18.20;93.50
30889;DHT22;51092;50.874;7.024;2023-07-16T05:04:05;18.20;92.30
30889;DHT22;51092;50.874;7.024;2023-07-16T05:05:08;18.20;93.30
30889;DHT22;51092;50.874;7.024;2023-07-16T05:06:10;18.20;93.50
30889;DHT22;51092;50.874;7.024;2023-07-16T05:07:12;18.20;91.90
30889;DHT22;51092;50.874;7.024;2023-07-16T05:08:14;18.20;91.80
30889;DHT22;51092;50.874;7.024;2023-07-16T05:09:17;18.30;92.20
30889;DHT22;51092;50.874;7.024;2023-07-16T05:10:18;18.30;91.30
30889;DHT22;51092;50.874;7.024;2023-07-16T05:11:19;18.30;89.60
30889;DHT22;51092;50.874;7.024;2023-07-16T05:12:21;18.30;90.60
30889;DHT22;51092;50.874;7.024;2023-07-16T05:13:22;18.30;90.40
30889;DHT22;51092;50.874;7.024;2023-07-16T05:14:27;18.30;90.80
30889;DHT22;51092;50.874;7.024;2023-07-16T05:15:31;18.30;88.20
30889;DHT22;51092;50.874;7.024;2023-07-16T05:16:33;18.30;90.60
30889;DHT22;51092;50.874;7.024;2023-07-16T05:17:34;18.30;89.10
30889;DHT22;51092;50.874;7.024;2023-07-16T05:18:36;18.30;90.00
30889;DHT22;51092;50.874;7.024;2023-07-16T05:19:37;18.30;88.20
30889;DHT22;51092;50.874;7.024;2023-07-16T05:20:38;18.30;87.50
30889;DHT22;51092;50.874;7.024;2023-07-16T05:21:41;18.30;87.10
30889;DHT22;51092;50.874;7.024;2023-07-16T05:22:42;18.30;88.00
30889;DHT22;51092;50.874;7.024;2023-07-16T05:23:45;18.30;86.50
30889;DHT22;51092;50.874;7.024;2023-07-16T05:24:46;18.30;83.80
30889;DHT22;51092;50.874;7.024;2023-07-16T05:25:49;18.40;85.60
30889;DHT22;51092;50.874;7.024;2023-07-16T05:26:51;18.40;84.40
30889;DHT22;51092;50.874;7.024;2023-07-16T05:27:55;18.30;84.20
30889;DHT22;51092;50.874;7.024;2023-07-16T05:28:57;18.40;83.50
30889;DHT22;51092;50.874;7.024;2023-07-16T05:30:01;18.40;84.80
30889;DHT22;51092;50.874;7.024;2023-07-16T05:31:03;18.40;83.70
30889;DHT22;51092;50.874;7.024;2023-07-16T05:32:06;18.40;84.00
30889;DHT22;51092;50.874;7.024;2023-07-16T05:33:07;18.50;82.00
30889;DHT22;51092;50.874;7.024;2023-07-16T05:34:09;18.50;82.30
30889;DHT22;51092;50.874;7.024;2023-07-16T05:35:10;18.50;81.60
30889;DHT22;51092;50.874;7.024;2023-07-16T05:36:12;18.50;81.20
30889;DHT22;51092;50.874;7.024;2023-07-16T05:37:13;18.50;79.60
30889;DHT22;51092;50.874;7.024;2023-07-16T05:38:16;18.50;80.30
30889;DHT22;51092;50.874;7.024;2023-07-16T05:39:17;18.50;80.80
30889;DHT22;51092;50.874;7.024;2023-07-16T05:40:20;18.60;81.90
30889;DHT22;51092;50.874;7.024;2023-07-16T05:41:21;18.50;78.40
30889;DHT22;51092;50.874;7.024;2023-07-16T05:42:24;18.50;79.70
30889;DHT22;51092;50.874;7.024;2023-07-16T05:43:25;18.50;79.90
30889;DHT22;51092;50.874;7.024;2023-07-16T05:44:27;18.60;80.30
30889;DHT22;51092;50.874;7.024;2023-07-16T05:45:30;18.60;79.80
30889;DHT22;51092;50.874;7.024;2023-07-16T05:46:33;18.60;78.30
30889;DHT22;51092;50.874;7.024;2023-07-16T05:47:34;18.60;79.30
30889;DHT22;51092;50.874;7.024;2023-07-16T05:48:36;18.70;80.00
30889;DHT22;51092;50.874;7.024;2023-07-16T05:49:38;18.70;78.60
30889;DHT22;51092;50.874;7.024;2023-07-16T05:50:40;18.60;75.90
30889;DHT22;51092;50.874;7.024;2023-07-16T05:51:44;18.60;76.50
30889;DHT22;51092;50.874;7.024;2023-07-16T05:52:47;18.70;74.80
30889;DHT22;51092;50.874;7.024;2023-07-16T05:53:49;18.60;73.70
30889;DHT22;51092;50.874;7.024;2023-07-16T05:54:51;18.60;73.50
30889;DHT22;51092;50.874;7.024;2023-07-16T05:55:52;18.60;72.10
30889;DHT22;51092;50.874;7.024;2023-07-16T05:56:54;18.70;73.10
30889;DHT22;51092;50.874;7.024;2023-07-16T05:57:55;18.60;73.90
30889;DHT22;51092;50.874;7.024;2023-07-16T05:58:58;18.70;73.60
30889;DHT22;51092;50.874;7.024;2023-07-16T05:59:59;18.70;74.70
30889;DHT22;51092;50.874;7.024;2023-07-16T06:01:03;18.70;72.30
30889;DHT22;51092;50.874;7.024;2023-07-16T06:02:05;18.70;73.00
30889;DHT22;51092;50.874;7.024;2023-07-16T06:03:08;18.80;73.00
30889;DHT22;51092;50.874;7.024;2023-07-16T06:04:09;18.70;70.50
30889;DHT22;51092;50.874;7.024;2023-07-16T06:05:12;18.70;71.60
30889;DHT22;51092;50.874;7.024;2023-07-16T06:06:15;18.70;71.50
30889;DHT22;51092;50.874;7.024;2023-07-16T06:07:17;18.70;71.50
30889;DHT22;51092;50.874;7.024;2023-07-16T06:08:19;18.70;72.20
30889;DHT22;51092;50.874;7.024;2023-07-16T06:09:21;18.80;71.00
30889;DHT22;51092;50.874;7.024;2023-07-16T06:10:23;18.80;69.50
30889;DHT22;51092;50.874;7.024;2023-07-16T06:11:25;18.80;69.50
30889;DHT22;51092;50.874;7.024;2023-07-16T06:12:27;18.80;70.30
30889;DHT22;51092;50.874;7.024;2023-07-16T06:13:29;18.80;69.40
30889;DHT22;51092;50.874;7.024;2023-07-16T06:14:32;18.80;69.50
30889;DHT22;51092;50.874;7.024;2023-07-16T06:15:33;18.80;69.90
30889;DHT22;51092;50.874;7.024;2023-07-16T06:16:37;18.80;69.40
30889;DHT22;51092;50.874;7.024;2023-07-16T06:17:39;18.80;69.30
30889;DHT22;51092;50.874;7.024;2023-07-16T06:18:41;18.80;68.60
30889;DHT22;51092;50.874;7.024;2023-07-16T06:19:43;18.90;69.40
30889;DHT22;51092;50.874;7.024;2023-07-16T06:20:45;18.90;68.40
30889;DHT22;51092;50.874;7.024;2023-07-16T06:21:47;18.90;69.10
30889;DHT22;51092;50.874;7.024;2023-07-16T06:22:49;18.80;68.40
30889;DHT22;51092;50.874;7.024;2023-07-16T06:23:51;18.90;68.80
30889;DHT22;51092;50.874;7.024;2023-07-16T06:24:54;18.90;67.30
30889;DHT22;51092;50.874;7.024;2023-07-16T06:25:55;19.00;66.90
30889;DHT22;51092;50.874;7.024;2023-07-16T06:26:58;18.90;67.40
30889;DHT22;51092;50.874;7.024;2023-07-16T06:28:00;19.00;66.80
30889;DHT22;51092;50.874;7.024;2023-07-16T06:29:02;18.90;66.60
30889;DHT22;51092;50.874;7.024;2023-07-16T06:30:05;19.00;65.70
30889;DHT22;51092;50.874;7.024;2023-07-16T06:31:07;19.00;66.80
30889;DHT22;51092;50.874;7.024;2023-07-16T06:32:10;19.00;66.60
30889;DHT22;51092;50.874;7.024;2023-07-16T06:33:11;19.00;67.00
30889;DHT22;51092;50.874;7.024;2023-07-16T06:34:12;19.10;66.40
30889;DHT22;51092;50.874;7.024;2023-07-16T06:35:15;19.10;66.20
30889;DHT22;51092;50.874;7.024;2023-07-16T06:36:17;19.10;65.50